createdAt,value
2023-05-04T00:00:28.206Z,48.54
2023-05-04T00:01:28.232Z,48.49
2023-05-04T00:02:28.443Z,48.51
2023-05-04T00:03:28.514Z,48.46
2023-05-04T00:04:28.503Z,48.35
2023-05-04T00:05:28.530Z,48.41
2023-05-04T00:06:28.605Z,48.46
2023-05-04T00:07:28.639Z,48.66
2023-05-04T00:08:28.715Z,48.92
2023-05-04T00:09:28.814Z,49.09
2023-05-04T00:10:28.831Z,49.56
2023-05-04T00:11:29.259Z,49.58
2023-05-04T00:12:29.024Z,49.68
2023-05-04T00:13:29.069Z,49.99
2023-05-04T00:14:29.063Z,50.05
2023-05-04T00:15:29.147Z,50.14
2023-05-04T00:16:29.206Z,50.13
2023-05-04T00:17:29.302Z,50.19
2023-05-04T00:18:29.343Z,50.21
2023-05-04T00:19:29.452Z,50.21
2023-05-04T00:20:29.444Z,50.21
2023-05-04T00:21:29.501Z,50.21
2023-05-04T00:22:29.552Z,50.21
2023-05-04T00:23:29.575Z,50.25
2023-05-04T00:24:29.692Z,50.29
2023-05-04T00:25:29.728Z,50.36
2023-05-04T00:26:30.255Z,50.45
2023-05-04T00:27:29.866Z,50.57
2023-05-04T00:28:29.892Z,50.67
2023-05-04T00:29:29.959Z,50.63
2023-05-04T00:30:30.038Z,50.70
2023-05-04T00:31:30.134Z,50.83
2023-05-04T00:32:30.198Z,51.17
2023-05-04T00:33:30.439Z,51.35
2023-05-04T00:34:30.202Z,51.47
2023-05-04T00:35:30.304Z,51.67
2023-05-04T00:36:30.732Z,51.66
2023-05-04T00:37:30.368Z,51.84
2023-05-04T00:38:30.455Z,52.12
2023-05-04T00:39:30.433Z,52.26
2023-05-04T00:40:30.476Z,52.10
2023-05-04T00:41:30.565Z,52.09
2023-05-04T00:42:30.477Z,52.21
2023-05-04T00:43:30.497Z,52.25
2023-05-04T00:44:30.642Z,52.30
2023-05-04T00:45:30.535Z,52.18
2023-05-04T00:46:31.311Z,52.47
2023-05-04T00:47:30.595Z,52.45
2023-05-04T00:48:30.557Z,52.46
2023-05-04T00:49:30.647Z,52.45
2023-05-04T00:50:30.642Z,52.43
2023-05-04T00:51:30.642Z,52.35
2023-05-04T00:52:30.640Z,52.25
2023-05-04T00:53:30.666Z,52.21
2023-05-04T00:54:30.634Z,52.17
2023-05-04T00:55:30.648Z,52.12
2023-05-04T00:56:30.772Z,52.09
2023-05-04T00:57:30.604Z,52.01
2023-05-04T00:58:30.691Z,52.14
2023-05-04T00:59:30.641Z,52.14
2023-05-04T01:00:30.626Z,52.02
2023-05-04T01:01:30.814Z,50.61
2023-05-04T01:02:30.691Z,50.18
2023-05-04T01:03:30.687Z,50.41
2023-05-04T01:04:30.713Z,50.03
2023-05-04T01:05:30.672Z,49.62
2023-05-04T01:06:30.677Z,49.27
2023-05-04T01:07:30.660Z,49.01
2023-05-04T01:08:30.675Z,49.00
2023-05-04T01:09:30.648Z,48.92
2023-05-04T01:10:30.779Z,48.87
2023-05-04T01:11:30.672Z,48.99
2023-05-04T01:12:30.662Z,48.97
2023-05-04T01:13:30.678Z,49.01
2023-05-04T01:14:30.692Z,48.86
2023-05-04T01:15:30.708Z,49.08
2023-05-04T01:16:30.716Z,48.91
2023-05-04T01:17:30.729Z,48.86
2023-05-04T01:18:30.746Z,48.84
2023-05-04T01:19:30.717Z,48.79
2023-05-04T01:20:30.712Z,48.89
2023-05-04T01:21:30.781Z,48.82
2023-05-04T01:22:30.752Z,48.86
2023-05-04T01:23:30.744Z,48.94
2023-05-04T01:24:30.788Z,48.99
2023-05-04T01:25:30.782Z,49.04
2023-05-04T01:26:30.773Z,48.96
2023-05-04T01:27:30.765Z,48.82
2023-05-04T01:28:30.780Z,48.88
2023-05-04T01:29:30.830Z,48.83
2023-05-04T01:30:30.885Z,48.88
2023-05-04T01:32:30.845Z,48.96
2023-05-04T01:33:30.852Z,48.89
2023-05-04T01:34:30.854Z,48.94
2023-05-04T01:35:30.873Z,48.80
2023-05-04T01:36:30.959Z,48.76
2023-05-04T01:37:30.875Z,48.77
2023-05-04T01:38:30.903Z,48.73
2023-05-04T01:39:30.892Z,48.91
2023-05-04T01:40:30.900Z,48.88
2023-05-04T01:41:31.012Z,48.83
2023-05-04T01:42:31.010Z,48.90
2023-05-04T01:43:30.984Z,49.10
2023-05-04T01:44:31.006Z,49.22
2023-05-04T01:45:31.026Z,49.45
2023-05-04T01:46:31.373Z,49.79
2023-05-04T01:47:31.075Z,50.17
2023-05-04T01:48:31.116Z,50.50
2023-05-04T01:49:31.120Z,50.61
2023-05-04T01:50:31.132Z,50.69
2023-05-04T01:51:31.285Z,50.59
2023-05-04T01:52:31.274Z,50.71
2023-05-04T01:53:31.282Z,50.78
2023-05-04T01:54:31.285Z,50.76
2023-05-04T01:55:31.318Z,50.77
2023-05-04T01:56:31.399Z,50.61
2023-05-04T01:57:31.401Z,50.58
2023-05-04T01:58:31.425Z,50.83
2023-05-04T01:59:31.458Z,51.15
2023-05-04T02:00:31.507Z,51.20
2023-05-04T02:01:31.756Z,51.19
2023-05-04T02:02:31.858Z,51.26
2023-05-04T02:03:31.787Z,51.18
2023-05-04T02:04:31.732Z,51.25
2023-05-04T02:05:31.785Z,51.23
2023-05-04T02:06:31.866Z,51.20
2023-05-04T02:07:31.910Z,51.26
2023-05-04T02:08:31.976Z,51.41
2023-05-04T02:09:32.035Z,51.34
2023-05-04T02:10:32.044Z,51.39
2023-05-04T02:11:32.124Z,51.40
2023-05-04T02:12:32.234Z,51.48
2023-05-04T02:13:32.244Z,51.35
2023-05-04T02:14:32.308Z,51.32
2023-05-04T02:15:32.372Z,51.28
2023-05-04T02:16:32.594Z,51.23
2023-05-04T02:17:32.507Z,51.25
2023-05-04T02:18:32.553Z,51.21
2023-05-04T02:19:32.598Z,51.19
2023-05-04T02:20:32.692Z,51.28
2023-05-04T02:21:32.743Z,51.78
2023-05-04T02:22:32.782Z,51.88
2023-05-04T02:23:32.824Z,51.93
2023-05-04T02:24:32.899Z,51.90
2023-05-04T02:25:33.008Z,51.86
2023-05-04T02:26:32.992Z,51.93
2023-05-04T02:27:33.018Z,51.93
2023-05-04T02:28:33.160Z,51.99
2023-05-04T02:29:33.176Z,52.00
2023-05-04T02:30:33.251Z,52.28
2023-05-04T02:31:33.317Z,52.43
2023-05-04T02:32:33.378Z,52.37
2023-05-04T02:33:33.451Z,52.44
2023-05-04T02:34:33.438Z,52.50
2023-05-04T02:35:33.601Z,52.38
2023-05-04T02:36:33.599Z,52.45
2023-05-04T02:37:33.839Z,52.49
2023-05-04T02:38:33.708Z,52.57
2023-05-04T02:39:33.747Z,52.55
2023-05-04T02:40:33.836Z,52.71
2023-05-04T02:41:33.854Z,52.76
2023-05-04T02:42:33.962Z,52.76
2023-05-04T02:43:33.948Z,52.82
2023-05-04T02:44:33.990Z,52.79
2023-05-04T02:45:34.126Z,52.74
2023-05-04T02:46:34.086Z,52.92
2023-05-04T02:47:34.161Z,52.97
2023-05-04T02:48:34.197Z,53.01
2023-05-04T02:49:34.224Z,53.07
2023-05-04T02:50:34.216Z,53.08
2023-05-04T02:51:34.256Z,53.04
2023-05-04T02:52:34.357Z,53.07
2023-05-04T02:53:34.326Z,53.13
2023-05-04T02:54:34.335Z,53.12
2023-05-04T02:55:34.360Z,53.26
2023-05-04T02:56:34.361Z,53.20
2023-05-04T02:57:34.382Z,53.24
2023-05-04T02:58:34.373Z,53.22
2023-05-04T02:59:34.357Z,53.31
2023-05-04T03:00:34.426Z,53.38
2023-05-04T03:01:35.010Z,53.37
2023-05-04T03:02:34.887Z,53.44
2023-05-04T03:03:34.389Z,53.39
2023-05-04T03:04:34.472Z,53.45
2023-05-04T03:05:34.408Z,53.52
2023-05-04T03:06:34.411Z,53.52
2023-05-04T03:07:34.564Z,53.49
2023-05-04T03:08:34.422Z,53.45
2023-05-04T03:09:34.473Z,53.46
2023-05-04T03:10:34.470Z,53.49
2023-05-04T03:11:34.479Z,53.36
2023-05-04T03:12:34.726Z,53.34
2023-05-04T03:13:34.495Z,53.36
2023-05-04T03:14:34.543Z,53.36
2023-05-04T03:15:34.654Z,53.56
2023-05-04T03:16:34.546Z,53.62
2023-05-04T03:17:34.636Z,53.63
2023-05-04T03:19:54.619Z,53.95
2023-05-04T03:20:54.667Z,53.88
2023-05-04T03:21:54.615Z,53.83
2023-05-04T03:22:54.587Z,53.84
2023-05-04T03:23:54.634Z,53.81
2023-05-04T03:24:54.602Z,53.81
2023-05-04T03:25:54.569Z,53.94
2023-05-04T03:26:54.553Z,53.96
2023-05-04T03:27:54.559Z,53.84
2023-05-04T03:28:54.549Z,53.81
2023-05-04T03:29:54.595Z,53.90
2023-05-04T03:30:54.530Z,53.93
2023-05-04T03:31:54.555Z,53.89
2023-05-04T03:32:54.586Z,53.92
2023-05-04T03:33:54.505Z,53.81
2023-05-04T03:34:54.517Z,53.78
2023-05-04T03:35:54.565Z,53.70
2023-05-04T03:36:54.516Z,53.69
2023-05-04T03:37:54.487Z,53.70
2023-05-04T03:38:54.485Z,53.66
2023-05-04T03:39:54.459Z,53.55
2023-05-04T03:40:54.499Z,53.59
2023-05-04T03:41:54.508Z,53.52
2023-05-04T03:42:54.479Z,53.26
2023-05-04T03:43:54.454Z,53.24
2023-05-04T03:44:54.533Z,53.23
2023-05-04T03:45:54.445Z,53.15
2023-05-04T03:46:54.445Z,53.18
2023-05-04T03:47:54.468Z,53.33
2023-05-04T03:48:54.466Z,53.31
2023-05-04T03:49:54.421Z,53.49
2023-05-04T03:50:54.423Z,53.66
2023-05-04T03:51:54.410Z,53.73
2023-05-04T03:52:54.534Z,53.94
2023-05-04T03:53:54.453Z,53.90
2023-05-04T03:54:54.426Z,53.90
2023-05-04T03:55:54.399Z,53.98
2023-05-04T03:56:54.420Z,54.23
2023-05-04T03:57:54.397Z,54.29
2023-05-04T03:58:54.391Z,54.20
2023-05-04T03:59:57.032Z,54.26
2023-05-04T04:00:54.352Z,54.29
2023-05-04T04:01:54.332Z,54.25
2023-05-04T04:02:54.442Z,54.43
2023-05-04T04:03:54.501Z,54.67
2023-05-04T04:04:54.387Z,54.56
2023-05-04T04:05:54.361Z,54.49
2023-05-04T04:06:54.293Z,54.44
2023-05-04T04:07:54.282Z,54.56
2023-05-04T04:08:54.277Z,54.49
2023-05-04T04:09:54.282Z,54.49
2023-05-04T04:10:54.261Z,54.46
2023-05-04T04:11:54.311Z,54.39
2023-05-04T04:12:54.316Z,54.36
2023-05-04T04:13:54.250Z,54.37
2023-05-04T04:14:54.278Z,54.34
2023-05-04T04:15:54.248Z,54.41
2023-05-04T04:16:54.235Z,54.57
2023-05-04T04:17:54.304Z,54.52
2023-05-04T04:18:54.223Z,54.53
2023-05-04T04:19:54.358Z,54.61
2023-05-04T04:20:54.203Z,54.60
2023-05-04T04:21:54.199Z,54.45
2023-05-04T04:22:54.228Z,54.65
2023-05-04T04:23:54.178Z,54.80
2023-05-04T04:24:54.172Z,54.67
2023-05-04T04:25:54.224Z,54.48
2023-05-04T04:26:54.267Z,54.48
2023-05-04T04:27:54.203Z,54.44
2023-05-04T04:28:54.164Z,54.54
2023-05-04T04:29:54.173Z,54.60
2023-05-04T04:30:54.186Z,54.61
2023-05-04T04:31:55.038Z,54.77
2023-05-04T04:32:54.183Z,54.78
2023-05-04T04:33:54.187Z,54.68
2023-05-04T04:34:54.109Z,54.85
2023-05-04T04:35:54.112Z,54.82
2023-05-04T04:36:54.108Z,54.72
2023-05-04T04:37:54.106Z,54.79
2023-05-04T04:38:54.079Z,54.78
2023-05-04T04:39:54.148Z,54.84
2023-05-04T04:40:54.089Z,54.76
2023-05-04T04:41:54.088Z,54.77
2023-05-04T04:42:54.050Z,54.76
2023-05-04T04:43:54.050Z,54.79
2023-05-04T04:44:54.022Z,54.68
2023-05-04T04:45:54.004Z,54.71
2023-05-04T04:46:54.122Z,54.71
2023-05-04T04:47:54.187Z,54.69
2023-05-04T04:48:54.042Z,54.72
2023-05-04T04:49:54.051Z,54.71
2023-05-04T04:50:54.016Z,54.69
2023-05-04T04:51:54.016Z,54.62
2023-05-04T04:52:54.004Z,54.55
2023-05-04T04:53:54.041Z,54.64
2023-05-04T04:54:53.965Z,54.53
2023-05-04T04:55:54.062Z,54.60
2023-05-04T04:56:54.095Z,54.58
2023-05-04T04:57:54.412Z,54.83
2023-05-04T04:58:54.109Z,55.04
2023-05-04T04:59:54.160Z,55.25
2023-05-04T05:00:54.250Z,55.34
2023-05-04T05:01:54.220Z,55.27
2023-05-04T05:02:54.410Z,55.25
2023-05-04T05:03:54.302Z,55.20
2023-05-04T05:04:54.434Z,55.10
2023-05-04T05:05:54.351Z,55.12
2023-05-04T05:06:54.479Z,55.21
2023-05-04T05:07:54.438Z,55.16
2023-05-04T05:08:54.455Z,55.26
2023-05-04T05:09:54.508Z,55.24
2023-05-04T05:10:54.571Z,55.38
2023-05-04T05:11:54.543Z,55.31
2023-05-04T05:12:54.566Z,55.23
2023-05-04T05:13:54.563Z,55.09
2023-05-04T05:14:54.609Z,55.20
2023-05-04T05:15:54.702Z,55.19
2023-05-04T05:16:54.760Z,55.17
2023-05-04T05:17:54.914Z,55.26
2023-05-04T05:18:54.705Z,55.29
2023-05-04T05:19:54.768Z,55.35
2023-05-04T05:20:54.785Z,55.30
2023-05-04T05:21:54.827Z,55.17
2023-05-04T05:22:54.845Z,55.18
2023-05-04T05:23:54.854Z,55.22
2023-05-04T05:24:54.846Z,55.18
2023-05-04T05:25:54.913Z,55.51
2023-05-04T05:26:54.904Z,55.62
2023-05-04T05:27:55.444Z,55.54
2023-05-04T05:28:54.945Z,55.40
2023-05-04T05:29:54.972Z,55.42
2023-05-04T05:30:54.967Z,55.33
2023-05-04T05:31:55.001Z,55.41
2023-05-04T05:32:55.167Z,55.36
2023-05-04T05:33:55.061Z,55.41
2023-05-04T05:34:55.070Z,55.60
2023-05-04T05:35:55.025Z,55.69
2023-05-04T05:36:55.100Z,55.74
2023-05-04T05:37:55.151Z,55.75
2023-05-04T05:38:55.128Z,55.71
2023-05-04T05:39:55.117Z,55.45
2023-05-04T05:40:55.171Z,55.86
2023-05-04T05:41:55.157Z,56.10
2023-05-04T05:42:55.163Z,56.10
2023-05-04T05:43:55.182Z,56.02
2023-05-04T05:44:55.169Z,55.96
2023-05-04T05:45:55.214Z,55.92
2023-05-04T05:46:55.223Z,55.89
2023-05-04T05:47:55.636Z,55.74
2023-05-04T05:48:55.214Z,55.73
2023-05-04T05:49:55.243Z,55.64
2023-05-04T05:50:55.280Z,55.64
2023-05-04T05:51:55.250Z,55.60
2023-05-04T05:52:55.388Z,55.64
2023-05-04T05:53:55.306Z,55.60
2023-05-04T05:54:55.319Z,55.59
2023-05-04T05:55:55.320Z,55.49
2023-05-04T05:56:55.417Z,55.41
2023-05-04T05:57:55.431Z,55.37
2023-05-04T05:58:55.338Z,55.31
2023-05-04T05:59:55.400Z,55.19
2023-05-04T06:00:55.359Z,55.14
2023-05-04T06:01:55.374Z,55.25
2023-05-04T06:02:55.442Z,55.37
2023-05-04T06:03:55.618Z,55.22
2023-05-04T06:04:55.441Z,55.35
2023-05-04T06:05:55.329Z,55.26
2023-05-04T06:06:55.418Z,55.60
2023-05-04T06:07:55.404Z,55.71
2023-05-04T06:08:55.426Z,55.36
2023-05-04T06:09:55.448Z,55.10
2023-05-04T06:10:55.337Z,54.77
2023-05-04T06:11:55.758Z,54.48
2023-05-04T06:12:55.395Z,54.15
2023-05-04T06:13:55.385Z,54.17
2023-05-04T06:14:55.340Z,53.90
2023-05-04T06:15:55.324Z,54.00
2023-05-04T06:16:55.491Z,54.12
2023-05-04T06:17:55.370Z,54.31
2023-05-04T06:18:55.319Z,54.34
2023-05-04T06:19:55.323Z,54.37
2023-05-04T06:20:55.431Z,54.30
2023-05-04T06:21:55.439Z,54.43
2023-05-04T06:22:55.920Z,54.29
2023-05-04T06:23:55.590Z,54.16
2023-05-04T06:25:00.400Z,54.05
2023-05-04T06:25:56.680Z,54.05
2023-05-04T06:26:55.620Z,53.98
2023-05-04T06:27:55.592Z,54.44
2023-05-04T06:28:55.579Z,53.84
2023-05-04T06:29:55.564Z,53.79
2023-05-04T06:30:55.589Z,53.63
2023-05-04T06:31:55.621Z,53.45
2023-05-04T06:32:55.938Z,53.50
2023-05-04T06:33:55.570Z,53.43
2023-05-04T06:34:55.601Z,53.35
2023-05-04T06:35:55.576Z,53.16
2023-05-04T06:36:55.523Z,53.26
2023-05-04T06:37:56.030Z,53.41
2023-05-04T06:38:55.527Z,53.45
2023-05-04T06:39:55.519Z,53.43
2023-05-04T06:40:55.527Z,53.41
2023-05-04T06:41:55.528Z,53.53
2023-05-04T06:42:55.970Z,53.50
2023-05-04T06:43:58.196Z,53.63
2023-05-04T06:44:55.503Z,53.52
2023-05-04T06:45:55.531Z,53.53
2023-05-04T06:46:55.494Z,53.44
2023-05-04T06:47:55.986Z,53.21
2023-05-04T06:48:55.464Z,52.91
2023-05-04T06:49:55.494Z,53.13
2023-05-04T06:50:55.472Z,53.25
2023-05-04T06:51:55.479Z,54.21
2023-05-04T06:52:55.483Z,53.39
2023-05-04T06:53:55.450Z,53.09
2023-05-04T06:54:55.477Z,52.89
2023-05-04T06:55:55.463Z,52.93
2023-05-04T06:56:55.403Z,52.82
2023-05-04T06:57:55.944Z,52.99
2023-05-04T06:58:55.440Z,52.73
2023-05-04T06:59:55.458Z,52.51
2023-05-04T07:00:55.455Z,52.46
2023-05-04T07:01:55.416Z,52.46
2023-05-04T07:02:55.424Z,52.81
2023-05-04T07:03:55.403Z,52.94
2023-05-04T07:04:55.401Z,52.63
2023-05-04T07:05:55.379Z,52.47
2023-05-04T07:06:55.373Z,52.39
2023-05-04T07:07:55.412Z,52.37
2023-05-04T07:08:55.368Z,52.33
2023-05-04T07:09:55.350Z,52.35
2023-05-04T07:10:55.365Z,52.44
2023-05-04T07:11:55.319Z,52.45
2023-05-04T07:12:55.442Z,52.56
2023-05-04T07:13:55.341Z,52.43
2023-05-04T07:14:55.297Z,52.24
2023-05-04T07:15:55.438Z,52.06
2023-05-04T07:16:55.304Z,52.10
2023-05-04T07:17:55.471Z,52.15
2023-05-04T07:18:55.305Z,52.08
2023-05-04T07:19:55.331Z,52.07
2023-05-04T07:21:01.652Z,51.89
2023-05-04T07:21:56.287Z,52.15
2023-05-04T07:22:55.287Z,52.52
2023-05-04T07:23:55.319Z,52.05
2023-05-04T07:24:55.242Z,51.94
2023-05-04T07:25:55.241Z,51.49
2023-05-04T07:26:55.265Z,51.20
2023-05-04T07:27:55.215Z,51.47
2023-05-04T07:28:55.230Z,51.47
2023-05-04T07:29:55.384Z,51.25
2023-05-04T07:30:55.234Z,50.92
2023-05-04T07:31:55.258Z,50.80
2023-05-04T07:32:55.451Z,50.77
2023-05-04T07:33:55.183Z,50.82
2023-05-04T07:34:55.210Z,50.79
2023-05-04T07:35:55.178Z,50.72
2023-05-04T07:36:55.169Z,50.79
2023-05-04T07:37:55.409Z,50.71
2023-05-04T07:38:55.142Z,50.76
2023-05-04T07:39:55.178Z,50.62
2023-05-04T07:40:55.149Z,50.22
2023-05-04T07:41:55.252Z,50.36
2023-05-04T07:42:55.543Z,50.48
2023-05-04T07:43:55.165Z,50.13
2023-05-04T07:44:55.183Z,49.31
2023-05-04T07:45:55.286Z,49.11
2023-05-04T07:46:55.304Z,49.14
2023-05-04T07:47:55.398Z,48.90
2023-05-04T07:48:55.365Z,49.07
2023-05-04T07:49:55.409Z,49.05
2023-05-04T07:50:55.466Z,48.83
2023-05-04T07:51:55.546Z,49.13
2023-05-04T07:52:55.683Z,48.85
2023-05-04T07:53:55.654Z,48.90
2023-05-04T07:54:55.744Z,48.58
2023-05-04T07:55:55.806Z,48.62
2023-05-04T07:56:55.842Z,48.72
2023-05-04T07:57:55.944Z,47.78
2023-05-04T07:58:55.906Z,47.92
2023-05-04T07:59:55.908Z,47.82
2023-05-04T08:00:55.985Z,47.89
2023-05-04T08:01:56.062Z,48.30
2023-05-04T08:02:56.493Z,48.12
2023-05-04T08:03:56.088Z,48.04
2023-05-04T08:04:56.097Z,47.97
2023-05-04T08:05:56.046Z,47.57
2023-05-04T08:06:56.101Z,47.62
2023-05-04T08:07:56.128Z,47.52
2023-05-04T08:08:56.163Z,47.61
2023-05-04T08:09:56.156Z,47.30
2023-05-04T08:11:02.004Z,46.72
2023-05-04T08:11:57.145Z,47.06
2023-05-04T08:12:56.151Z,47.38
2023-05-04T08:13:56.437Z,46.66
2023-05-04T08:14:56.161Z,46.51
2023-05-04T08:15:56.130Z,46.34
2023-05-04T08:16:56.116Z,46.36
2023-05-04T08:17:56.130Z,46.39
2023-05-04T08:18:56.077Z,46.28
2023-05-04T08:19:56.096Z,46.37
2023-05-04T08:20:56.108Z,46.21
2023-05-04T08:21:56.089Z,46.91
2023-05-04T08:22:56.268Z,47.08
2023-05-04T08:23:56.117Z,47.29
2023-05-04T08:24:56.185Z,46.84
2023-05-04T08:25:56.173Z,46.95
2023-05-04T08:27:07.013Z,46.95
2023-05-04T08:27:57.190Z,46.43
2023-05-04T08:28:56.243Z,46.56
2023-05-04T08:29:56.173Z,46.48
2023-05-04T08:30:56.234Z,46.47
2023-05-04T08:31:56.199Z,46.06
2023-05-04T08:32:56.208Z,46.15
2023-05-04T08:33:56.388Z,46.54
2023-05-04T08:34:56.199Z,46.83
2023-05-04T08:35:56.165Z,46.31
2023-05-04T08:36:56.148Z,45.97
2023-05-04T08:37:56.146Z,45.93
2023-05-04T08:38:56.140Z,45.89
2023-05-04T08:39:56.140Z,45.83
2023-05-04T08:40:56.122Z,45.48
2023-05-04T08:41:56.089Z,45.38
2023-05-04T08:42:56.110Z,45.10
2023-05-04T08:43:56.111Z,45.09
2023-05-04T08:44:56.109Z,45.64
2023-05-04T08:45:56.143Z,45.37
2023-05-04T08:46:56.183Z,44.90
2023-05-04T08:47:56.162Z,45.39
2023-05-04T08:48:56.125Z,45.17
2023-05-04T08:49:56.055Z,45.38
2023-05-04T08:50:56.150Z,45.44
2023-05-04T08:51:56.158Z,45.18
2023-05-04T08:52:56.171Z,44.79
2023-05-04T08:53:56.264Z,44.47
2023-05-04T08:54:56.252Z,43.73
2023-05-04T08:55:56.335Z,43.37
2023-05-04T08:56:56.391Z,43.35
2023-05-04T08:57:56.442Z,42.71
2023-05-04T08:58:56.478Z,42.99
2023-05-04T08:59:56.568Z,42.86
2023-05-04T09:00:56.732Z,42.90
2023-05-04T09:01:56.710Z,42.88
2023-05-04T09:02:56.854Z,42.99
2023-05-04T09:03:56.986Z,43.36
2023-05-04T09:04:56.800Z,43.39
2023-05-04T09:05:56.913Z,43.51
2023-05-04T09:06:56.967Z,43.34
2023-05-04T09:07:57.017Z,43.75
2023-05-04T09:08:57.052Z,43.65
2023-05-04T09:09:57.125Z,43.71
2023-05-04T09:10:57.187Z,43.48
2023-05-04T09:11:57.193Z,43.89
2023-05-04T09:12:57.340Z,44.08
2023-05-04T09:13:57.333Z,43.62
2023-05-04T09:14:57.373Z,43.55
2023-05-04T09:15:57.428Z,43.96
2023-05-04T09:16:57.519Z,44.33
2023-05-04T09:17:58.136Z,44.31
2023-05-04T09:18:57.617Z,44.03
2023-05-04T09:19:57.650Z,43.70
2023-05-04T09:20:57.671Z,43.74
2023-05-04T09:21:58.115Z,44.17
2023-05-04T09:22:57.690Z,44.36
2023-05-04T09:23:57.789Z,43.56
2023-05-04T09:24:57.751Z,42.66
2023-05-04T09:25:57.762Z,42.47
2023-05-04T09:26:57.706Z,43.02
2023-05-04T09:27:57.895Z,43.14
2023-05-04T09:28:57.851Z,42.62
2023-05-04T09:29:57.815Z,42.92
2023-05-04T09:30:57.814Z,42.96
2023-05-04T09:31:57.796Z,43.04
2023-05-04T09:32:57.974Z,43.11
2023-05-04T09:33:57.908Z,43.44
2023-05-04T09:34:58.025Z,43.66
2023-05-04T09:35:58.152Z,43.83
2023-05-04T09:36:58.046Z,43.55
2023-05-04T09:37:58.119Z,42.86
2023-05-04T09:38:58.164Z,42.95
2023-05-04T09:39:58.167Z,42.57
2023-05-04T09:40:58.172Z,41.84
2023-05-04T09:41:58.192Z,41.49
2023-05-04T09:42:58.183Z,41.74
2023-05-04T09:43:58.252Z,41.69
2023-05-04T09:44:58.201Z,42.13
2023-05-04T09:45:58.295Z,42.16
2023-05-04T09:46:58.218Z,41.10
2023-05-04T09:47:58.315Z,41.22
2023-05-04T09:48:58.271Z,41.44
2023-05-04T09:49:58.270Z,41.52
2023-05-04T09:50:58.299Z,41.82
2023-05-04T09:51:58.337Z,41.81
2023-05-04T09:52:58.294Z,41.71
2023-05-04T09:53:58.356Z,41.73
2023-05-04T09:54:58.328Z,42.31
2023-05-04T09:56:00.048Z,41.32
2023-05-04T09:56:58.337Z,41.58
2023-05-04T09:57:58.302Z,41.77
2023-05-04T09:58:58.286Z,41.84
2023-05-04T09:59:58.284Z,41.56
2023-05-04T10:00:58.274Z,41.67
2023-05-04T10:02:00.442Z,41.77
2023-05-04T10:02:59.337Z,41.90
2023-05-04T10:03:58.442Z,41.32
2023-05-04T10:04:58.301Z,41.81
2023-05-04T10:05:58.312Z,41.63
2023-05-04T10:06:58.213Z,41.71
2023-05-04T10:07:58.248Z,42.31
2023-05-04T10:08:58.249Z,42.65
2023-05-04T10:09:58.215Z,42.04
2023-05-04T10:10:58.197Z,41.63
2023-05-04T10:12:00.390Z,41.41
2023-05-04T10:12:58.305Z,41.40
2023-05-04T10:13:58.361Z,41.61
2023-05-04T10:14:58.380Z,42.01
2023-05-04T10:15:58.449Z,41.75
2023-05-04T10:16:58.497Z,41.88
2023-05-04T10:17:58.548Z,40.70
2023-05-04T10:18:58.557Z,40.46
2023-05-04T10:19:58.641Z,40.78
2023-05-04T10:20:58.644Z,40.98
2023-05-04T10:21:58.696Z,40.76
2023-05-04T10:22:58.732Z,40.19
2023-05-04T10:23:58.765Z,40.05
2023-05-04T10:24:58.800Z,39.64
2023-05-04T10:25:58.864Z,38.85
2023-05-04T10:26:58.886Z,39.03
2023-05-04T10:27:58.902Z,39.28
2023-05-04T10:28:58.935Z,39.22
2023-05-04T10:29:59.009Z,39.16
2023-05-04T10:30:59.124Z,39.35
2023-05-04T10:31:59.052Z,39.71
2023-05-04T10:32:59.109Z,38.15
2023-05-04T10:33:59.518Z,38.55
2023-05-04T10:34:59.086Z,38.62
2023-05-04T10:35:59.229Z,38.33
2023-05-04T10:36:59.074Z,38.34
2023-05-04T10:37:59.134Z,38.14
2023-05-04T10:38:59.504Z,37.53
2023-05-04T10:39:59.307Z,37.47
2023-05-04T10:40:59.342Z,37.11
2023-05-04T10:41:59.451Z,37.14
2023-05-04T10:42:59.435Z,37.05
2023-05-04T10:43:59.559Z,37.28
2023-05-04T10:44:59.707Z,37.58
2023-05-04T10:45:59.693Z,37.88
2023-05-04T10:46:59.936Z,37.71
2023-05-04T10:47:59.844Z,37.77
2023-05-04T10:48:59.849Z,36.91
2023-05-04T10:49:59.870Z,36.65
2023-05-04T10:51:01.571Z,37.35
2023-05-04T10:52:01.850Z,37.18
2023-05-04T10:53:00.259Z,37.10
2023-05-04T10:54:00.178Z,37.55
2023-05-04T10:55:00.259Z,37.44
2023-05-04T10:56:00.180Z,36.26
2023-05-04T10:57:00.500Z,36.17
2023-05-04T10:58:01.232Z,36.28
2023-05-04T10:59:00.405Z,35.12
2023-05-04T11:00:00.317Z,35.14
2023-05-04T11:01:00.373Z,35.22
2023-05-04T11:02:00.410Z,34.91
2023-05-04T11:03:00.416Z,35.08
2023-05-04T11:04:00.490Z,34.91
2023-05-04T11:05:00.429Z,34.96
2023-05-04T11:06:01.352Z,35.06
2023-05-04T11:07:00.408Z,35.03
2023-05-04T11:08:00.584Z,34.79
2023-05-04T11:09:00.436Z,34.29
2023-05-04T11:10:00.645Z,34.95
2023-05-04T11:12:20.136Z,35.02
2023-05-04T11:14:44.732Z,34.58
2023-05-04T11:15:39.741Z,34.44
2023-05-04T11:18:01.115Z,35.12
2023-05-04T11:19:15.088Z,33.88
2023-05-04T11:20:00.783Z,33.65
2023-05-04T11:21:00.739Z,33.63
2023-05-04T11:26:04.735Z,33.99
2023-05-04T11:26:59.877Z,32.95
2023-05-04T11:27:59.927Z,32.55
2023-05-04T11:28:59.872Z,32.45
2023-05-04T11:30:12.043Z,32.42
2023-05-04T11:31:15.697Z,32.54
2023-05-04T11:32:32.456Z,33.07
2023-05-04T11:34:38.676Z,32.26
2023-05-04T11:35:53.002Z,32.16
2023-05-04T11:36:38.690Z,31.94
2023-05-04T11:37:38.664Z,30.77
2023-05-04T11:38:38.638Z,30.87
2023-05-04T11:39:38.717Z,31.27
2023-05-04T11:40:38.719Z,30.74
2023-05-04T11:41:38.775Z,30.21
2023-05-04T11:42:38.824Z,30.20
2023-05-04T11:43:38.945Z,30.18
2023-05-04T11:44:38.970Z,30.15
2023-05-04T11:45:38.936Z,30.42
2023-05-04T11:46:38.973Z,29.92
2023-05-04T11:47:38.993Z,29.94
2023-05-04T11:48:38.933Z,29.77
2023-05-04T11:49:38.942Z,29.40
2023-05-04T11:50:39.013Z,29.98
2023-05-04T11:51:38.994Z,30.39
2023-05-04T11:52:38.956Z,30.00
2023-05-04T11:53:38.971Z,29.69
2023-05-04T11:54:39.011Z,30.22
2023-05-04T11:55:39.151Z,30.29
2023-05-04T11:56:39.082Z,30.28
2023-05-04T11:57:39.174Z,29.97
2023-05-04T11:58:39.354Z,29.67
2023-05-04T11:59:39.288Z,28.64
2023-05-04T12:00:40.477Z,28.37
2023-05-04T12:01:39.418Z,27.66
2023-05-04T12:02:39.528Z,27.12
2023-05-04T12:03:48.529Z,27.35
2023-05-04T12:04:40.506Z,27.91
2023-05-04T12:05:39.513Z,27.38
2023-05-04T12:06:39.527Z,26.19
2023-05-04T12:07:39.465Z,26.73
2023-05-04T12:08:39.481Z,27.00
2023-05-04T12:09:39.459Z,26.65
2023-05-04T12:10:39.481Z,26.36
2023-05-04T12:11:39.425Z,26.60
2023-05-04T12:12:39.550Z,26.75
2023-05-04T12:13:39.439Z,27.12
2023-05-04T12:14:39.864Z,26.91
2023-05-04T12:15:39.791Z,27.14
2023-05-04T12:16:39.999Z,26.61
2023-05-04T12:17:40.672Z,26.55
2023-05-04T12:18:39.777Z,26.80
2023-05-04T12:19:39.613Z,27.11
2023-05-04T12:20:39.539Z,27.31
2023-05-04T12:21:39.507Z,27.40
2023-05-04T12:22:39.556Z,26.90
2023-05-04T12:23:39.516Z,26.56
2023-05-04T12:24:39.576Z,26.30
2023-05-04T12:25:50.916Z,26.46
2023-05-04T12:26:40.563Z,26.52
2023-05-04T12:27:39.547Z,26.92
2023-05-04T12:28:39.584Z,27.14
2023-05-04T12:29:39.849Z,26.99
2023-05-04T12:30:39.579Z,26.91
2023-05-04T12:31:39.547Z,27.16
2023-05-04T12:32:39.512Z,26.79
2023-05-04T12:33:39.553Z,26.08
2023-05-04T12:34:39.514Z,25.82
2023-05-04T12:35:39.513Z,26.29
2023-05-04T12:36:39.496Z,25.36
2023-05-04T12:37:39.577Z,25.52
2023-05-04T12:38:39.488Z,26.06
2023-05-04T12:39:39.865Z,26.11
2023-05-04T12:40:39.474Z,26.48
2023-05-04T12:41:39.451Z,26.38
2023-05-04T12:42:39.428Z,27.30
2023-05-04T12:43:39.467Z,27.25
2023-05-04T12:44:39.453Z,26.56
2023-05-04T12:45:39.556Z,26.28
2023-05-04T12:46:39.425Z,26.71
2023-05-04T12:47:39.435Z,26.07
2023-05-04T12:48:39.404Z,26.43
2023-05-04T12:49:39.851Z,26.08
2023-05-04T12:50:39.441Z,25.75
2023-05-04T12:51:39.474Z,25.46
2023-05-04T12:52:39.536Z,25.49
2023-05-04T12:53:39.468Z,25.72
2023-05-04T12:54:39.446Z,26.18
2023-05-04T12:55:39.594Z,27.27
2023-05-04T12:56:39.631Z,27.89
2023-05-04T12:57:39.641Z,28.43
2023-05-04T12:58:39.665Z,28.82
2023-05-04T12:59:39.700Z,29.18
2023-05-04T13:00:51.318Z,29.01
2023-05-04T13:01:39.966Z,29.65
2023-05-04T13:02:40.010Z,29.72
2023-05-04T13:03:40.038Z,29.25
2023-05-04T13:04:39.982Z,29.15